sensor_id;sensor_type;location;lat;lon;timestamp;temperature;humidity
11083;DHT22;5595;50.186;8.468;2023-02-26T00:01:12;-0.40;99.90
11083;DHT22;5595;50.186;8.468;2023-02-26T00:03:39;-0.50;99.90
11083;DHT22;5595;50.186;8.468;2023-02-26T00:06:06;-0.50;99.90
11083;DHT22;5595;50.186;8.468;2023-02-26T00:08:33;-0.50;99.90
11083;DHT22;5595;50.186;8.468;2023-02-26T00:11:00;-0.50;99.90
11083;DHT22;5595;50.186;8.468;2023-02-26T00:13:28;-0.50;99.90
11083;DHT22;5595;50.186;8.468;2023-02-26T00:15:59;-0.50;99.90
11083;DHT22;5595;50.186;8.468;2023-02-26T00:18:26;-0.50;99.90
11083;DHT22;5595;50.186;8.468;2023-02-26T00:20:55;-0.50;99.90
11083;DHT22;5595;50.186;8.468;2023-02-26T00:23:22;-0.50;99.90
11083;DHT22;5595;50.186;8.468;2023-02-26T00:25:49;-0.50;99.90
11083;DHT22;5595;50.186;8.468;2023-02-26T00:28:17;-0.40;99.90
11083;DHT22;5595;50.186;8.468;2023-02-26T00:30:44;-0.40;99.90
11083;DHT22;5595;50.186;8.468;2023-02-26T00:33:13;-0.50;99.90
11083;DHT22;5595;50.186;8.468;2023-02-26T00:35:40;-0.30;99.90
11083;DHT22;5595;50.186;8.468;2023-02-26T00:38:09;-0.20;99.90
11083;DHT22;5595;50.186;8.468;2023-02-26T00:40:43;-0.20;99.90
11083;DHT22;5595;50.186;8.468;2023-02-26T00:43:15;-0.20;99.90
11083;DHT22;5595;50.186;8.468;2023-02-26T00:45:44;0.00;99.90
11083;DHT22;5595;50.186;8.468;2023-02-26T00:48:27;-0.10;99.90
11083;DHT22;5595;50.186;8.468;2023-02-26T00:50:59;0.00;99.90
11083;DHT22;5595;50.186;8.468;2023-02-26T00:53:32;0.00;99.90
11083;DHT22;5595;50.186;8.468;2023-02-26T00:56:01;0.00;99.90
11083;DHT22;5595;50.186;8.468;2023-02-26T00:58:28;0.00;99.90
11083;DHT22;5595;50.186;8.468;2023-02-26T01:00:55;0.00;99.90
11083;DHT22;5595;50.186;8.468;2023-02-26T01:03:24;0.10;99.90
11083;DHT22;5595;50.186;8.468;2023-02-26T01:05:51;0.20;99.90
11083;DHT22;5595;50.186;8.468;2023-02-26T01:08:23;0.10;99.90
11083;DHT22;5595;50.186;8.468;2023-02-26T01:10:53;0.20;99.90
11083;DHT22;5595;50.186;8.468;2023-02-26T01:13:21;0.20;99.90
11083;DHT22;5595;50.186;8.468;2023-02-26T01:15:53;0.20;99.90
11083;DHT22;5595;50.186;8.468;2023-02-26T01:18:27;0.20;99.90
11083;DHT22;5595;50.186;8.468;2023-02-26T01:21:02;0.10;99.90
11083;DHT22;5595;50.186;8.468;2023-02-26T01:23:32;0.10;99.90
11083;DHT22;5595;50.186;8.468;2023-02-26T01:26:04;0.10;99.90
11083;DHT22;5595;50.186;8.468;2023-02-26T01:28:33;0.20;99.90
11083;DHT22;5595;50.186;8.468;2023-02-26T01:31:02;0.20;99.90
11083;DHT22;5595;50.186;8.468;2023-02-26T01:33:37;0.00;99.90
11083;DHT22;5595;50.186;8.468;2023-02-26T01:36:08;-0.10;99.90
11083;DHT22;5595;50.186;8.468;2023-02-26T01:38:41;-0.10;99.90
11083;DHT22;5595;50.186;8.468;2023-02-26T01:41:21;0.00;99.90
11083;DHT22;5595;50.186;8.468;2023-02-26T01:43:56;-0.20;99.90
11083;DHT22;5595;50.186;8.468;2023-02-26T01:46:29;-0.20;99.90
11083;DHT22;5595;50.186;8.468;2023-02-26T01:49:01;-0.10;99.90
11083;DHT22;5595;50.186;8.468;2023-02-26T01:51:46;-0.20;99.90
11083;DHT22;5595;50.186;8.468;2023-02-26T01:54:14;0.00;99.90
11083;DHT22;5595;50.186;8.468;2023-02-26T01:56:43;-0.10;99.90
11083;DHT22;5595;50.186;8.468;2023-02-26T01:59:13;-0.20;99.90
11083;DHT22;5595;50.186;8.468;2023-02-26T02:01:41;-0.20;99.90
11083;DHT22;5595;50.186;8.468;2023-02-26T02:04:13;-0.20;99.90
11083;DHT22;5595;50.186;8.468;2023-02-26T02:06:42;-0.10;99.90
11083;DHT22;5595;50.186;8.468;2023-02-26T02:09:11;-0.10;99.90
11083;DHT22;5595;50.186;8.468;2023-02-26T02:11:57;-0.10;99.90
11083;DHT22;5595;50.186;8.468;2023-02-26T02:14:32;-0.10;99.90
11083;DHT22;5595;50.186;8.468;2023-02-26T02:17:07;-0.20;99.90
11083;DHT22;5595;50.186;8.468;2023-02-26T02:19:53;-0.20;99.90
11083;DHT22;5595;50.186;8.468;2023-02-26T02:22:34;-0.30;99.90
11083;DHT22;5595;50.186;8.468;2023-02-26T02:25:19;-0.40;99.90
11083;DHT22;5595;50.186;8.468;2023-02-26T02:27:56;-0.40;99.90
11083;DHT22;5595;50.186;8.468;2023-02-26T02:30:32;-0.40;99.90
11083;DHT22;5595;50.186;8.468;2023-02-26T02:33:06;-0.40;99.90
11083;DHT22;5595;50.186;8.468;2023-02-26T02:35:40;-0.50;99.90
11083;DHT22;5595;50.186;8.468;2023-02-26T02:38:12;-0.50;99.90
11083;DHT22;5595;50.186;8.468;2023-02-26T02:40:42;-0.50;99.90
11083;DHT22;5595;50.186;8.468;2023-02-26T02:43:14;-0.50;99.90
11083;DHT22;5595;50.186;8.468;2023-02-26T02:45:43;-0.50;99.90
11083;DHT22;5595;50.186;8.468;2023-02-26T02:48:16;-0.50;99.90
11083;DHT22;5595;50.186;8.468;2023-02-26T02:50:49;-0.40;99.90
11083;DHT22;5595;50.186;8.468;2023-02-26T02:53:22;-0.30;99.90
11083;DHT22;5595;50.186;8.468;2023-02-26T02:56:00;-0.40;99.90
11083;DHT22;5595;50.186;8.468;2023-02-26T02:58:30;-0.30;99.90
11083;DHT22;5595;50.186;8.468;2023-02-26T03:01:01;-0.30;99.90
11083;DHT22;5595;50.186;8.468;2023-02-26T03:03:36;-0.30;99.90
11083;DHT22;5595;50.186;8.468;2023-02-26T03:06:05;-0.30;99.90
11083;DHT22;5595;50.186;8.468;2023-02-26T03:08:36;-0.20;99.90
11083;DHT22;5595;50.186;8.468;2023-02-26T03:11:05;-0.20;99.90
11083;DHT22;5595;50.186;8.468;2023-02-26T03:13:32;-0.20;99.90
11083;DHT22;5595;50.186;8.468;2023-02-26T03:16:08;-0.20;99.90
11083;DHT22;5595;50.186;8.468;2023-02-26T03:18:51;-0.20;99.90
11083;DHT22;5595;50.186;8.468;2023-02-26T03:21:26;-0.30;99.90
11083;DHT22;5595;50.186;8.468;2023-02-26T03:23:59;-0.30;99.90
11083;DHT22;5595;50.186;8.468;2023-02-26T03:26:30;-0.40;99.90
11083;DHT22;5595;50.186;8.468;2023-02-26T03:29:04;-0.60;99.90
11083;DHT22;5595;50.186;8.468;2023-02-26T03:31:37;-0.70;99.90
11083;DHT22;5595;50.186;8.468;2023-02-26T03:34:14;-0.60;99.90
11083;DHT22;5595;50.186;8.468;2023-02-26T03:36:47;-0.60;99.90
11083;DHT22;5595;50.186;8.468;2023-02-26T03:39:20;-0.70;99.90
11083;DHT22;5595;50.186;8.468;2023-02-26T03:41:52;-0.80;99.90
11083;DHT22;5595;50.186;8.468;2023-02-26T03:44:24;-0.90;99.90
11083;DHT22;5595;50.186;8.468;2023-02-26T03:46:57;-0.80;99.90
11083;DHT22;5595;50.186;8.468;2023-02-26T03:49:32;-0.80;99.90
11083;DHT22;5595;50.186;8.468;2023-02-26T03:52:02;-0.90;99.90
11083;DHT22;5595;50.186;8.468;2023-02-26T03:54:32;-1.00;99.90
11083;DHT22;5595;50.186;8.468;2023-02-26T03:57:00;-1.00;99.90
11083;DHT22;5595;50.186;8.468;2023-02-26T03:59:26;-1.10;99.90
11083;DHT22;5595;50.186;8.468;2023-02-26T04:01:58;-1.10;99.90
11083;DHT22;5595;50.186;8.468;2023-02-26T04:04:32;-1.10;99.90
11083;DHT22;5595;50.186;8.468;2023-02-26T04:07:00;-1.10;99.90
11083;DHT22;5595;50.186;8.468;2023-02-26T04:09:27;-1.10;99.90
11083;DHT22;5595;50.186;8.468;2023-02-26T04:11:55;-1.10;99.90
11083;DHT22;5595;50.186;8.468;2023-02-26T04:14:22;-1.20;99.90
11083;DHT22;5595;50.186;8.468;2023-02-26T04:16:49;-1.20;99.90
11083;DHT22;5595;50.186;8.468;2023-02-26T04:19:16;-1.10;99.90
11083;DHT22;5595;50.186;8.468;2023-02-26T04:21:45;-1.30;99.90
11083;DHT22;5595;50.186;8.468;2023-02-26T04:24:12;-1.20;99.90
11083;DHT22;5595;50.186;8.468;2023-02-26T04:26:38;-1.30;99.90
11083;DHT22;5595;50.186;8.468;2023-02-26T04:29:05;-1.30;99.90
11083;DHT22;5595;50.186;8.468;2023-02-26T04:31:32;-1.10;99.90
11083;DHT22;5595;50.186;8.468;2023-02-26T04:33:59;-1.30;99.90
11083;DHT22;5595;50.186;8.468;2023-02-26T04:36:26;-1.20;99.90
11083;DHT22;5595;50.186;8.468;2023-02-26T04:38:55;-1.10;99.90
11083;DHT22;5595;50.186;8.468;2023-02-26T04:41:22;-1.40;99.90
11083;DHT22;5595;50.186;8.468;2023-02-26T04:43:49;-1.40;99.90
11083;DHT22;5595;50.186;8.468;2023-02-26T04:46:16;-1.40;99.90
11083;DHT22;5595;50.186;8.468;2023-02-26T04:48:43;-1.40;99.90
11083;DHT22;5595;50.186;8.468;2023-02-26T04:51:10;-1.40;99.90
11083;DHT22;5595;50.186;8.468;2023-02-26T04:53:36;-1.50;99.90
11083;DHT22;5595;50.186;8.468;2023-02-26T04:56:05;-1.50;99.90
11083;DHT22;5595;50.186;8.468;2023-02-26T04:58:33;-1.60;99.90
11083;DHT22;5595;50.186;8.468;2023-02-26T05:01:00;-1.50;99.90
11083;DHT22;5595;50.186;8.468;2023-02-26T05:03:27;-1.50;99.90
11083;DHT22;5595;50.186;8.468;2023-02-26T05:05:53;-1.30;99.90
11083;DHT22;5595;50.186;8.468;2023-02-26T05:08:20;-1.50;99.90
11083;DHT22;5595;50.186;8.468;2023-02-26T05:10:47;-1.50;99.90
11083;DHT22;5595;50.186;8.468;2023-02-26T05:13:17;-1.50;99.90
11083;DHT22;5595;50.186;8.468;2023-02-26T05:15:43;-1.40;99.90
11083;DHT22;5595;50.186;8.468;2023-02-26T05:18:10;-1.50;99.90
11083;DHT22;5595;50.186;8.468;2023-02-26T05:20:37;-1.50;99.90
11083;DHT22;5595;50.186;8.468;2023-02-26T05:23:04;-1.60;99.90
11083;DHT22;5595;50.186;8.468;2023-02-26T05:25:31;-1.60;99.90
11083;DHT22;5595;50.186;8.468;2023-02-26T05:27:58;-1.60;99.90
11083;DHT22;5595;50.186;8.468;2023-02-26T05:30:26;-1.60;99.90
11083;DHT22;5595;50.186;8.468;2023-02-26T05:32:53;-1.60;99.90
11083;DHT22;5595;50.186;8.468;2023-02-26T05:35:20;-1.60;99.90
11083;DHT22;5595;50.186;8.468;2023-02-26T05:37:47;-1.70;99.90
11083;DHT22;5595;50.186;8.468;2023-02-26T05:40:14;-1.70;99.90
11083;DHT22;5595;50.186;8.468;2023-02-26T05:42:41;-1.70;99.90
11083;DHT22;5595;50.186;8.468;2023-02-26T05:45:08;-1.50;99.90
11083;DHT22;5595;50.186;8.468;2023-02-26T05:47:37;-1.70;99.90
11083;DHT22;5595;50.186;8.468;2023-02-26T05:50:05;-1.70;99.90
11083;DHT22;5595;50.186;8.468;2023-02-26T05:52:32;-1.70;99.90
11083;DHT22;5595;50.186;8.468;2023-02-26T05:54:59;-1.60;99.90
11083;DHT22;5595;50.186;8.468;2023-02-26T05:57:26;-1.60;99.90
11083;DHT22;5595;50.186;8.468;2023-02-26T05:59:53;-1.70;99.90
11083;DHT22;5595;50.186;8.468;2023-02-26T06:02:20;-1.70;99.90
11083;DHT22;5595;50.186;8.468;2023-02-26T06:04:48;-1.70;99.90
11083;DHT22;5595;50.186;8.468;2023-02-26T06:07:15;-1.70;99.90
11083;DHT22;5595;50.186;8.468;2023-02-26T06:09:42;-1.70;99.90
11083;DHT22;5595;50.186;8.468;2023-02-26T06:12:09;-1.50;99.90
11083;DHT22;5595;50.186;8.468;2023-02-26T06:14:35;-1.60;99.90
11083;DHT22;5595;50.186;8.468;2023-02-26T06:17:02;-1.60;99.90
11083;DHT22;5595;50.186;8.468;2023-02-26T06:19:29;-1.50;99.90
11083;DHT22;5595;50.186;8.468;2023-02-26T06:21:57;-1.40;99.90
11083;DHT22;5595;50.186;8.468;2023-02-26T06:24:24;-1.50;99.90
11083;DHT22;5595;50.186;8.468;2023-02-26T06:26:52;-1.60;99.90
11083;DHT22;5595;50.186;8.468;2023-02-26T06:29:19;-1.40;99.90
11083;DHT22;5595;50.186;8.468;2023-02-26T06:31:46;-1.40;99.90
11083;DHT22;5595;50.186;8.468;2023-02-26T06:34:13;-1.50;99.90
11083;DHT22;5595;50.186;8.468;2023-02-26T06:36:40;-1.50;99.90
11083;DHT22;5595;50.186;8.468;2023-02-26T06:39:09;-1.50;99.90
11083;DHT22;5595;50.186;8.468;2023-02-26T06:41:37;-1.50;99.90
11083;DHT22;5595;50.186;8.468;2023-02-26T06:44:04;-1.60;99.90
11083;DHT22;5595;50.186;8.468;2023-02-26T06:46:31;-1.50;99.90
11083;DHT22;5595;50.186;8.468;2023-02-26T06:48:58;-1.30;99.90
11083;DHT22;5595;50.186;8.468;2023-02-26T06:51:25;-1.60;99.90
11083;DHT22;5595;50.186;8.468;2023-02-26T06:53:52;-1.60;99.90
11083;DHT22;5595;50.186;8.468;2023-02-26T06:56:20;-1.50;99.90
11083;DHT22;5595;50.186;8.468;2023-02-26T06:58:47;-1.60;99.90
11083;DHT22;5595;50.186;8.468;2023-02-26T07:01:14;-1.60;99.90
11083;DHT22;5595;50.186;8.468;2023-02-26T07:03:41;-1.60;99.90
11083;DHT22;5595;50.186;8.468;2023-02-26T07:06:09;-1.50;99.90
11083;DHT22;5595;50.186;8.468;2023-02-26T07:08:36;-1.20;99.90
11083;DHT22;5595;50.186;8.468;2023-02-26T07:11:04;-1.40;99.90
11083;DHT22;5595;50.186;8.468;2023-02-26T07:13:34;-1.40;99.90
11083;DHT22;5595;50.186;8.468;2023-02-26T07:16:01;-1.40;99.90
11083;DHT22;5595;50.186;8.468;2023-02-26T07:18:28;-1.30;99.90
11083;DHT22;5595;50.186;8.468;2023-02-26T07:20:55;-1.30;99.90
11083;DHT22;5595;50.186;8.468;2023-02-26T07:23:22;-1.30;99.90
11083;DHT22;5595;50.186;8.468;2023-02-26T07:25:49;-1.30;99.90
11083;DHT22;5595;50.186;8.468;2023-02-26T07:28:15;-1.20;99.90
11083;DHT22;5595;50.186;8.468;2023-02-26T07:30:44;-1.20;99.90
11083;DHT22;5595;50.186;8.468;2023-02-26T07:33:11;-1.30;99.90
11083;DHT22;5595;50.186;8.468;2023-02-26T07:35:38;-1.30;99.90
11083;DHT22;5595;50.186;8.468;2023-02-26T07:38:05;-1.20;99.90
11083;DHT22;5595;50.186;8.468;2023-02-26T07:40:32;-1.20;99.90
11083;DHT22;5595;50.186;8.468;2023-02-26T07:42:59;-1.10;99.90
11083;DHT22;5595;50.186;8.468;2023-02-26T07:45:26;-1.10;99.90
11083;DHT22;5595;50.186;8.468;2023-02-26T07:47:54;-0.90;99.90
11083;DHT22;5595;50.186;8.468;2023-02-26T07:50:21;-1.00;99.90
11083;DHT22;5595;50.186;8.468;2023-02-26T07:52:50;-0.70;99.90
11083;DHT22;5595;50.186;8.468;2023-02-26T07:55:18;-0.80;99.90
11083;DHT22;5595;50.186;8.468;2023-02-26T07:57:46;-1.00;99.90
11083;DHT22;5595;50.186;8.468;2023-02-26T08:00:14;-1.00;99.90
11083;DHT22;5595;50.186;8.468;2023-02-26T08:02:41;-1.10;99.90
11083;DHT22;5595;50.186;8.468;2023-02-26T08:05:09;-0.90;99.90
11083;DHT22;5595;50.186;8.468;2023-02-26T08:07:36;-0.90;99.90
11083;DHT22;5595;50.186;8.468;2023-02-26T08:10:04;-0.80;99.90
11083;DHT22;5595;50.186;8.468;2023-02-26T08:12:31;-0.90;99.90
11083;DHT22;5595;50.186;8.468;2023-02-26T08:14:58;-0.60;99.90
11083;DHT22;5595;50.186;8.468;2023-02-26T08:17:25;-0.50;99.90
11083;DHT22;5595;50.186;8.468;2023-02-26T08:19:52;-0.40;99.90
11083;DHT22;5595;50.186;8.468;2023-02-26T08:22:20;-0.10;99.90
11083;DHT22;5595;50.186;8.468;2023-02-26T08:24:48;0.00;99.90
11083;DHT22;5595;50.186;8.468;2023-02-26T08:27:15;0.10;99.90
11083;DHT22;5595;50.186;8.468;2023-02-26T08:29:42;0.00;99.90
11083;DHT22;5595;50.186;8.468;2023-02-26T08:32:10;0.00;99.90
11083;DHT22;5595;50.186;8.468;2023-02-26T08:34:37;0.00;99.90
11083;DHT22;5595;50.186;8.468;2023-02-26T08:37:04;0.00;99.90
11083;DHT22;5595;50.186;8.468;2023-02-26T08:39:35;0.00;99.90
11083;DHT22;5595;50.186;8.468;2023-02-26T08:42:04;0.00;99.90
11083;DHT22;5595;50.186;8.468;2023-02-26T08:44:31;0.10;99.90
11083;DHT22;5595;50.186;8.468;2023-02-26T08:46:58;0.20;99.90
11083;DHT22;5595;50.186;8.468;2023-02-26T08:49:25;0.30;99.90
11083;DHT22;5595;50.186;8.468;2023-02-26T08:51:52;0.30;99.90
11083;DHT22;5595;50.186;8.468;2023-02-26T08:54:19;0.30;99.90
11083;DHT22;5595;50.186;8.468;2023-02-26T08:56:47;0.30;99.90
11083;DHT22;5595;50.186;8.468;2023-02-26T08:59:14;0.40;99.90
11083;DHT22;5595;50.186;8.468;2023-02-26T09:01:41;0.40;99.90
11083;DHT22;5595;50.186;8.468;2023-02-26T09:04:08;0.60;99.90
11083;DHT22;5595;50.186;8.468;2023-02-26T09:06:35;0.50;99.90
11083;DHT22;5595;50.186;8.468;2023-02-26T09:09:02;0.40;99.90
11083;DHT22;5595;50.186;8.468;2023-02-26T09:11:29;0.40;99.90
11083;DHT22;5595;50.186;8.468;2023-02-26T09:14:03;0.60;99.90
11083;DHT22;5595;50.186;8.468;2023-02-26T09:16:30;0.70;99.90
11083;DHT22;5595;50.186;8.468;2023-02-26T09:18:59;0.80;99.90
11083;DHT22;5595;50.186;8.468;2023-02-26T09:21:26;0.90;99.90
11083;DHT22;5595;50.186;8.468;2023-02-26T09:23:53;0.90;99.90
11083;DHT22;5595;50.186;8.468;2023-02-26T09:26:30;0.70;99.90
11083;DHT22;5595;50.186;8.468;2023-02-26T09:28:59;0.90;99.90
11083;DHT22;5595;50.186;8.468;2023-02-26T09:31:26;0.80;99.90
11083;DHT22;5595;50.186;8.468;2023-02-26T09:33:52;0.80;99.90
11083;DHT22;5595;50.186;8.468;2023-02-26T09:36:19;1.00;99.90
11083;DHT22;5595;50.186;8.468;2023-02-26T09:38:46;1.10;99.90
11083;DHT22;5595;50.186;8.468;2023-02-26T09:41:18;1.20;99.90
11083;DHT22;5595;50.186;8.468;2023-02-26T09:44:08;1.40;99.90
11083;DHT22;5595;50.186;8.468;2023-02-26T09:46:45;1.60;99.90
11083;DHT22;5595;50.186;8.468;2023-02-26T09:49:28;1.50;99.90
11083;DHT22;5595;50.186;8.468;2023-02-26T09:52:01;1.50;99.90
11083;DHT22;5595;50.186;8.468;2023-02-26T09:54:48;1.60;99.90
11083;DHT22;5595;50.186;8.468;2023-02-26T09:57:24;1.90;99.90
11083;DHT22;5595;50.186;8.468;2023-02-26T09:59:53;2.20;99.90
11083;DHT22;5595;50.186;8.468;2023-02-26T10:02:25;2.30;99.90
11083;DHT22;5595;50.186;8.468;2023-02-26T10:05:13;2.60;99.90
11083;DHT22;5595;50.186;8.468;2023-02-26T10:07:46;2.50;99.90
11083;DHT22;5595;50.186;8.468;2023-02-26T10:10:21;2.50;99.90
11083;DHT22;5595;50.186;8.468;2023-02-26T10:12:51;2.50;99.90
11083;DHT22;5595;50.186;8.468;2023-02-26T10:15:22;2.40;99.90
11083;DHT22;5595;50.186;8.468;2023-02-26T10:18:05;2.20;99.90
11083;DHT22;5595;50.186;8.468;2023-02-26T10:20:38;2.30;99.90
11083;DHT22;5595;50.186;8.468;2023-02-26T10:23:16;2.30;99.90
11083;DHT22;5595;50.186;8.468;2023-02-26T10:25:47;2.50;99.90
11083;DHT22;5595;50.186;8.468;2023-02-26T10:28:40;2.40;99.90
11083;DHT22;5595;50.186;8.468;2023-02-26T10:31:21;2.50;99.90
11083;DHT22;5595;50.186;8.468;2023-02-26T10:33:57;2.80;99.90
11083;DHT22;5595;50.186;8.468;2023-02-26T10:36:28;2.90;99.90
11083;DHT22;5595;50.186;8.468;2023-02-26T10:39:00;3.00;99.90
11083;DHT22;5595;50.186;8.468;2023-02-26T10:41:30;3.10;99.90
11083;DHT22;5595;50.186;8.468;2023-02-26T10:44:03;3.00;99.90
11083;DHT22;5595;50.186;8.468;2023-02-26T10:46:39;3.00;99.90
11083;DHT22;5595;50.186;8.468;2023-02-26T10:49:28;2.90;99.90
11083;DHT22;5595;50.186;8.468;2023-02-26T10:52:04;2.70;99.90
11083;DHT22;5595;50.186;8.468;2023-02-26T10:54:39;2.30;99.90
11083;DHT22;5595;50.186;8.468;2023-02-26T10:57:09;2.10;99.90
11083;DHT22;5595;50.186;8.468;2023-02-26T10:59:40;2.00;99.90
11083;DHT22;5595;50.186;8.468;2023-02-26T11:02:26;2.20;99.90
11083;DHT22;5595;50.186;8.468;2023-02-26T11:04:57;2.20;99.90
11083;DHT22;5595;50.186;8.468;2023-02-26T11:07:25;2.60;99.90
11083;DHT22;5595;50.186;8.468;2023-02-26T11:09:53;2.60;99.90
11083;DHT22;5595;50.186;8.468;2023-02-26T11:12:21;2.60;99.90
11083;DHT22;5595;50.186;8.468;2023-02-26T11:14:49;2.30;99.90
11083;DHT22;5595;50.186;8.468;2023-02-26T11:17:19;2.20;99.90
11083;DHT22;5595;50.186;8.468;2023-02-26T11:19:51;2.10;99.90
11083;DHT22;5595;50.186;8.468;2023-02-26T11:22:18;1.90;99.90
11083;DHT22;5595;50.186;8.468;2023-02-26T11:24:48;1.80;99.90
11083;DHT22;5595;50.186;8.468;2023-02-26T11:27:20;1.80;99.90
11083;DHT22;5595;50.186;8.468;2023-02-26T11:29:53;1.90;99.90
11083;DHT22;5595;50.186;8.468;2023-02-26T11:32:29;1.90;99.90
11083;DHT22;5595;50.186;8.468;2023-02-26T11:34:56;1.90;99.90
11083;DHT22;5595;50.186;8.468;2023-02-26T11:37:26;2.10;99.90
11083;DHT22;5595;50.186;8.468;2023-02-26T11:39:55;2.30;99.90
11083;DHT22;5595;50.186;8.468;2023-02-26T11:42:23;2.50;99.90
11083;DHT22;5595;50.186;8.468;2023-02-26T11:44:51;2.50;99.90
11083;DHT22;5595;50.186;8.468;2023-02-26T11:47:20;2.60;99.90
11083;DHT22;5595;50.186;8.468;2023-02-26T11:49:52;2.90;99.90
11083;DHT22;5595;50.186;8.468;2023-02-26T11:52:21;2.80;99.90
11083;DHT22;5595;50.186;8.468;2023-02-26T11:54:50;2.80;99.90
11083;DHT22;5595;50.186;8.468;2023-02-26T11:57:23;3.10;99.90
11083;DHT22;5595;50.186;8.468;2023-02-26T11:59:52;2.90;99.90
11083;DHT22;5595;50.186;8.468;2023-02-26T12:02:21;3.00;99.90
11083;DHT22;5595;50.186;8.468;2023-02-26T12:04:52;3.20;99.90
11083;DHT22;5595;50.186;8.468;2023-02-26T12:07:20;3.10;99.90
11083;DHT22;5595;50.186;8.468;2023-02-26T12:09:47;3.10;99.90
11083;DHT22;5595;50.186;8.468;2023-02-26T12:12:28;3.20;99.90
11083;DHT22;5595;50.186;8.468;2023-02-26T12:15:14;3.40;99.90
11083;DHT22;5595;50.186;8.468;2023-02-26T12:18:24;3.50;99.90
11083;DHT22;5595;50.186;8.468;2023-02-26T12:21:06;3.50;99.90
11083;DHT22;5595;50.186;8.468;2023-02-26T12:24:01;3.50;99.90
11083;DHT22;5595;50.186;8.468;2023-02-26T12:26:33;3.70;99.90
11083;DHT22;5595;50.186;8.468;2023-02-26T12:29:12;3.80;99.90
11083;DHT22;5595;50.186;8.468;2023-02-26T12:34:58;3.70;99.90
11083;DHT22;5595;50.186;8.468;2023-02-26T12:37:42;3.60;99.90
11083;DHT22;5595;50.186;8.468;2023-02-26T12:40:24;3.50;99.90
11083;DHT22;5595;50.186;8.468;2023-02-26T12:43:00;3.60;99.90
11083;DHT22;5595;50.186;8.468;2023-02-26T12:45:39;3.70;99.90
11083;DHT22;5595;50.186;8.468;2023-02-26T12:48:25;3.70;99.90
11083;DHT22;5595;50.186;8.468;2023-02-26T12:51:01;3.60;99.90
11083;DHT22;5595;50.186;8.468;2023-02-26T12:54:00;3.50;99.90
11083;DHT22;5595;50.186;8.468;2023-02-26T12:59:47;3.40;99.90
11083;DHT22;5595;50.186;8.468;2023-02-26T13:05:34;3.40;99.90
11083;DHT22;5595;50.186;8.468;2023-02-26T13:08:14;3.50;99.90
11083;DHT22;5595;50.186;8.468;2023-02-26T13:10:58;3.50;99.90
11083;DHT22;5595;50.186;8.468;2023-02-26T13:13:42;3.50;99.90
11083;DHT22;5595;50.186;8.468;2023-02-26T13:16:22;3.40;99.90
11083;DHT22;5595;50.186;8.468;2023-02-26T13:18:58;3.50;99.90
11083;DHT22;5595;50.186;8.468;2023-02-26T13:21:30;3.40;99.90
11083;DHT22;5595;50.186;8.468;2023-02-26T13:24:02;3.40;99.90
11083;DHT22;5595;50.186;8.468;2023-02-26T13:26:34;3.60;99.90
11083;DHT22;5595;50.186;8.468;2023-02-26T13:29:04;3.60;99.90
11083;DHT22;5595;50.186;8.468;2023-02-26T13:31:34;3.60;99.90
11083;DHT22;5595;50.186;8.468;2023-02-26T13:34:10;3.60;99.90
11083;DHT22;5595;50.186;8.468;2023-02-26T13:36:38;3.80;99.90
11083;DHT22;5595;50.186;8.468;2023-02-26T13:39:22;3.70;99.90
11083;DHT22;5595;50.186;8.468;2023-02-26T13:42:00;3.80;99.90
11083;DHT22;5595;50.186;8.468;2023-02-26T13:44:33;3.50;99.90
11083;DHT22;5595;50.186;8.468;2023-02-26T13:47:30;3.50;99.90
11083;DHT22;5595;50.186;8.468;2023-02-26T13:50:19;3.50;99.90
11083;DHT22;5595;50.186;8.468;2023-02-26T13:52:53;3.50;99.90
11083;DHT22;5595;50.186;8.468;2023-02-26T13:55:40;3.50;99.90
11083;DHT22;5595;50.186;8.468;2023-02-26T13:58:26;3.30;99.90
11083;DHT22;5595;50.186;8.468;2023-02-26T14:00:58;3.20;99.90
11083;DHT22;5595;50.186;8.468;2023-02-26T14:03:31;3.20;99.90
11083;DHT22;5595;50.186;8.468;2023-02-26T14:06:08;3.20;99.90
11083;DHT22;5595;50.186;8.468;2023-02-26T14:08:45;3.30;99.90
11083;DHT22;5595;50.186;8.468;2023-02-26T14:11:36;3.30;99.90
11083;DHT22;5595;50.186;8.468;2023-02-26T14:14:15;3.30;99.90
11083;DHT22;5595;50.186;8.468;2023-02-26T14:16:43;3.20;99.90
11083;DHT22;5595;50.186;8.468;2023-02-26T14:19:22;3.10;99.90
11083;DHT22;5595;50.186;8.468;2023-02-26T14:21:50;3.10;99.90
11083;DHT22;5595;50.186;8.468;2023-02-26T14:24:23;3.10;99.90
11083;DHT22;5595;50.186;8.468;2023-02-26T14:27:06;3.20;99.90
11083;DHT22;5595;50.186;8.468;2023-02-26T14:29:40;3.20;99.90
11083;DHT22;5595;50.186;8.468;2023-02-26T14:32:21;3.10;99.90
11083;DHT22;5595;50.186;8.468;2023-02-26T14:34:53;3.10;99.90
11083;DHT22;5595;50.186;8.468;2023-02-26T14:37:24;2.70;99.90
11083;DHT22;5595;50.186;8.468;2023-02-26T14:39:55;3.00;99.90
11083;DHT22;5595;50.186;8.468;2023-02-26T14:42:28;3.10;99.90
11083;DHT22;5595;50.186;8.468;2023-02-26T14:45:07;3.40;99.90
11083;DHT22;5595;50.186;8.468;2023-02-26T14:47:35;3.50;99.90
11083;DHT22;5595;50.186;8.468;2023-02-26T14:50:05;3.50;99.90
11083;DHT22;5595;50.186;8.468;2023-02-26T14:52:45;3.30;99.90
11083;DHT22;5595;50.186;8.468;2023-02-26T14:55:38;3.00;99.90
11083;DHT22;5595;50.186;8.468;2023-02-26T14:58:27;3.10;99.90
11083;DHT22;5595;50.186;8.468;2023-02-26T15:01:06;3.30;99.90
11083;DHT22;5595;50.186;8.468;2023-02-26T15:04:04;3.60;99.90
11083;DHT22;5595;50.186;8.468;2023-02-26T15:06:51;3.50;99.90
11083;DHT22;5595;50.186;8.468;2023-02-26T15:09:24;3.50;99.90
11083;DHT22;5595;50.186;8.468;2023-02-26T15:12:04;3.50;99.90
11083;DHT22;5595;50.186;8.468;2023-02-26T15:18:02;3.20;99.90
11083;DHT22;5595;50.186;8.468;2023-02-26T15:20:42;3.20;99.90
11083;DHT22;5595;50.186;8.468;2023-02-26T15:23:27;3.40;99.90
11083;DHT22;5595;50.186;8.468;2023-02-26T15:25:58;3.20;99.90
11083;DHT22;5595;50.186;8.468;2023-02-26T15:28:27;3.00;99.90
11083;DHT22;5595;50.186;8.468;2023-02-26T15:30:55;2.90;99.90
11083;DHT22;5595;50.186;8.468;2023-02-26T15:33:24;2.90;99.90
11083;DHT22;5595;50.186;8.468;2023-02-26T15:35:53;2.90;99.90
11083;DHT22;5595;50.186;8.468;2023-02-26T15:38:21;2.60;99.90
11083;DHT22;5595;50.186;8.468;2023-02-26T15:40:50;2.70;99.90
11083;DHT22;5595;50.186;8.468;2023-02-26T15:43:21;2.50;99.90
11083;DHT22;5595;50.186;8.468;2023-02-26T15:45:51;2.20;99.90
11083;DHT22;5595;50.186;8.468;2023-02-26T15:48:20;2.30;99.90
11083;DHT22;5595;50.186;8.468;2023-02-26T15:50:53;2.30;99.90
11083;DHT22;5595;50.186;8.468;2023-02-26T15:53:27;2.30;99.90
11083;DHT22;5595;50.186;8.468;2023-02-26T15:55:55;2.00;99.90
11083;DHT22;5595;50.186;8.468;2023-02-26T15:58:34;1.80;99.90
11083;DHT22;5595;50.186;8.468;2023-02-26T16:01:03;1.70;99.90
11083;DHT22;5595;50.186;8.468;2023-02-26T16:03:32;1.60;99.90
11083;DHT22;5595;50.186;8.468;2023-02-26T16:06:01;1.60;99.90
11083;DHT22;5595;50.186;8.468;2023-02-26T16:08:28;1.50;99.90
11083;DHT22;5595;50.186;8.468;2023-02-26T16:10:56;1.40;99.90
11083;DHT22;5595;50.186;8.468;2023-02-26T16:13:28;1.50;99.90
11083;DHT22;5595;50.186;8.468;2023-02-26T16:15:59;1.50;99.90
11083;DHT22;5595;50.186;8.468;2023-02-26T16:18:26;1.50;99.90
11083;DHT22;5595;50.186;8.468;2023-02-26T16:20:55;1.50;99.90
11083;DHT22;5595;50.186;8.468;2023-02-26T16:23:31;1.40;99.90
11083;DHT22;5595;50.186;8.468;2023-02-26T16:26:04;1.50;99.90
11083;DHT22;5595;50.186;8.468;2023-02-26T16:28:35;1.40;99.90
11083;DHT22;5595;50.186;8.468;2023-02-26T16:31:16;1.20;99.90
11083;DHT22;5595;50.186;8.468;2023-02-26T16:33:52;1.10;99.90
11083;DHT22;5595;50.186;8.468;2023-02-26T16:36:20;1.10;99.90